Terminal Aerodrome Forecast
Issued by NWS Des Moines, IA

Home | Current Version | Previous Version | Text Only | Print | Product List | Glossary On
Versions: 1 2 3 4 5 6 7 8 9 10 11 12 13 14 15
000
FTUS43 KDMX 102337
TAFDSM
TAF
KDSM 102337Z 1100/1124 12010KT P6SM OVC050
     FM110900 15009KT P6SM OVC030
     FM111500 18010KT P6SM OVC007
     FM111800 24009G15KT P6SM OVC008=

USA.gov is the U.S. government's official web portal to all federal, state and local government web resources and services.